sensor_id;sensor_type;location;lat;lon;timestamp;pressure;altitude;pressure_sealevel;temperature;humidity
14273;BME280;7220;49.450;11.052;2023-04-03T00:03:48;98980.75;;;6.74;58.13
14273;BME280;7220;49.450;11.052;2023-04-03T00:07:48;98973.47;;;6.84;57.63
14273;BME280;7220;49.450;11.052;2023-04-03T00:11:50;98973.56;;;6.44;58.30
14273;BME280;7220;49.450;11.052;2023-04-03T00:15:51;98987.16;;;5.87;60.36
14273;BME280;7220;49.450;11.052;2023-04-03T00:19:51;98978.06;;;5.59;61.82
14273;BME280;7220;49.450;11.052;2023-04-03T00:23:52;98986.97;;;5.96;60.53
14273;BME280;7220;49.450;11.052;2023-04-03T00:27:52;98994.50;;;6.14;60.09
14273;BME280;7220;49.450;11.052;2023-04-03T00:31:52;98987.69;;;5.62;61.62
14273;BME280;7220;49.450;11.052;2023-04-03T00:35:52;98982.53;;;5.99;60.70
14273;BME280;7220;49.450;11.052;2023-04-03T00:39:53;98992.25;;;5.96;60.86
14273;BME280;7220;49.450;11.052;2023-04-03T00:43:54;98987.06;;;5.91;60.47
14273;BME280;7220;49.450;11.052;2023-04-03T00:47:54;98996.06;;;5.82;61.26
14273;BME280;7220;49.450;11.052;2023-04-03T00:51:57;98992.56;;;5.80;61.95
14273;BME280;7220;49.450;11.052;2023-04-03T00:55:58;98999.81;;;5.71;61.72
14273;BME280;7220;49.450;11.052;2023-04-03T01:00:08;98987.63;;;5.65;61.34
14273;BME280;7220;49.450;11.052;2023-04-03T01:04:29;98978.28;;;5.91;60.55
14273;BME280;7220;49.450;11.052;2023-04-03T01:08:30;98991.53;;;5.88;60.61
14273;BME280;7220;49.450;11.052;2023-04-03T01:12:38;98983.81;;;5.78;61.22
14273;BME280;7220;49.450;11.052;2023-04-03T01:16:39;98992.06;;;5.63;61.37
14273;BME280;7220;49.450;11.052;2023-04-03T01:20:58;98997.72;;;5.87;61.32
14273;BME280;7220;49.450;11.052;2023-04-03T01:25:03;98986.81;;;5.61;61.64
14273;BME280;7220;49.450;11.052;2023-04-03T01:29:04;98988.47;;;5.67;61.16
14273;BME280;7220;49.450;11.052;2023-04-03T01:33:04;98993.75;;;5.67;60.74
14273;BME280;7220;49.450;11.052;2023-04-03T01:37:04;98993.91;;;5.59;60.70
14273;BME280;7220;49.450;11.052;2023-04-03T01:41:05;98984.09;;;5.66;60.44
14273;BME280;7220;49.450;11.052;2023-04-03T01:45:05;98986.97;;;5.55;60.65
14273;BME280;7220;49.450;11.052;2023-04-03T01:49:06;98991.75;;;5.36;61.18
14273;BME280;7220;49.450;11.052;2023-04-03T01:53:06;98986.38;;;5.39;61.38
14273;BME280;7220;49.450;11.052;2023-04-03T01:57:07;98983.94;;;5.30;61.38
14273;BME280;7220;49.450;11.052;2023-04-03T02:01:07;98984.75;;;5.33;60.80
14273;BME280;7220;49.450;11.052;2023-04-03T02:05:08;98993.41;;;4.95;62.34
14273;BME280;7220;49.450;11.052;2023-04-03T02:09:08;98989.66;;;5.07;62.13
14273;BME280;7220;49.450;11.052;2023-04-03T02:13:09;98989.44;;;5.17;61.68
14273;BME280;7220;49.450;11.052;2023-04-03T02:17:09;99001.66;;;5.21;62.13
14273;BME280;7220;49.450;11.052;2023-04-03T02:21:10;98993.97;;;5.12;62.52
14273;BME280;7220;49.450;11.052;2023-04-03T02:25:10;99000.88;;;5.16;61.88
14273;BME280;7220;49.450;11.052;2023-04-03T02:29:10;98995.06;;;4.99;62.06
14273;BME280;7220;49.450;11.052;2023-04-03T02:33:11;98993.03;;;5.13;62.13
14273;BME280;7220;49.450;11.052;2023-04-03T02:37:11;98986.34;;;4.95;62.09
14273;BME280;7220;49.450;11.052;2023-04-03T02:41:12;99001.31;;;4.41;64.69
14273;BME280;7220;49.450;11.052;2023-04-03T02:45:12;98989.63;;;4.58;64.26
14273;BME280;7220;49.450;11.052;2023-04-03T02:49:13;98987.47;;;4.82;63.75
14273;BME280;7220;49.450;11.052;2023-04-03T02:53:13;98993.47;;;4.37;65.14
14273;BME280;7220;49.450;11.052;2023-04-03T02:57:13;98999.94;;;4.16;65.78
14273;BME280;7220;49.450;11.052;2023-04-03T03:01:14;98996.66;;;4.00;66.95
14273;BME280;7220;49.450;11.052;2023-04-03T03:05:15;98998.28;;;4.08;67.10
14273;BME280;7220;49.450;11.052;2023-04-03T03:09:15;98999.75;;;4.28;66.30
14273;BME280;7220;49.450;11.052;2023-04-03T03:13:16;98994.69;;;4.14;66.99
14273;BME280;7220;49.450;11.052;2023-04-03T03:17:16;98995.91;;;4.49;65.55
14273;BME280;7220;49.450;11.052;2023-04-03T03:21:17;98993.75;;;4.18;67.23
14273;BME280;7220;49.450;11.052;2023-04-03T03:25:17;98985.78;;;4.24;66.88
14273;BME280;7220;49.450;11.052;2023-04-03T03:29:17;98994.31;;;4.37;66.78
14273;BME280;7220;49.450;11.052;2023-04-03T03:33:18;98989.25;;;4.26;67.34
14273;BME280;7220;49.450;11.052;2023-04-03T03:37:19;98989.88;;;4.41;67.29
14273;BME280;7220;49.450;11.052;2023-04-03T03:41:19;98988.31;;;4.29;68.15
14273;BME280;7220;49.450;11.052;2023-04-03T03:45:19;98986.16;;;3.98;69.16
14273;BME280;7220;49.450;11.052;2023-04-03T03:49:20;98998.56;;;4.48;68.45
14273;BME280;7220;49.450;11.052;2023-04-03T03:53:20;99000.78;;;4.18;69.38
14273;BME280;7220;49.450;11.052;2023-04-03T03:57:21;98991.09;;;4.21;69.25
14273;BME280;7220;49.450;11.052;2023-04-03T04:01:22;98999.88;;;4.20;69.42
14273;BME280;7220;49.450;11.052;2023-04-03T04:05:22;98993.22;;;4.52;69.01
14273;BME280;7220;49.450;11.052;2023-04-03T04:09:23;98985.97;;;4.67;68.29
14273;BME280;7220;49.450;11.052;2023-04-03T04:13:23;98989.66;;;4.56;69.10
14273;BME280;7220;49.450;11.052;2023-04-03T04:17:23;98986.69;;;4.75;68.74
14273;BME280;7220;49.450;11.052;2023-04-03T04:21:24;98993.22;;;5.04;67.61
14273;BME280;7220;49.450;11.052;2023-04-03T04:25:24;98993.22;;;5.02;67.86
14273;BME280;7220;49.450;11.052;2023-04-03T04:29:25;98993.31;;;4.99;68.18
14273;BME280;7220;49.450;11.052;2023-04-03T04:33:25;98990.75;;;4.95;68.30
14273;BME280;7220;49.450;11.052;2023-04-03T04:37:25;98994.72;;;5.17;68.42
14273;BME280;7220;49.450;11.052;2023-04-03T04:41:25;98992.97;;;4.68;69.73
14273;BME280;7220;49.450;11.052;2023-04-03T04:45:26;98996.44;;;4.70;70.25
14273;BME280;7220;49.450;11.052;2023-04-03T04:49:26;98999.09;;;4.70;70.12
14273;BME280;7220;49.450;11.052;2023-04-03T04:53:27;99005.91;;;4.82;69.42
14273;BME280;7220;49.450;11.052;2023-04-03T04:57:27;99013.44;;;4.50;70.90
14273;BME280;7220;49.450;11.052;2023-04-03T05:01:27;99016.75;;;4.63;70.96
14273;BME280;7220;49.450;11.052;2023-04-03T05:05:28;99021.03;;;4.69;70.66
14273;BME280;7220;49.450;11.052;2023-04-03T05:09:29;99009.72;;;4.64;71.02
14273;BME280;7220;49.450;11.052;2023-04-03T05:13:30;99023.28;;;4.92;70.19
14273;BME280;7220;49.450;11.052;2023-04-03T05:17:30;99023.56;;;4.75;70.58
14273;BME280;7220;49.450;11.052;2023-04-03T05:21:30;99017.34;;;4.81;70.91
14273;BME280;7220;49.450;11.052;2023-04-03T05:25:32;99019.84;;;4.88;70.40
14273;BME280;7220;49.450;11.052;2023-04-03T05:29:32;99023.34;;;4.89;70.59
14273;BME280;7220;49.450;11.052;2023-04-03T05:33:33;99034.44;;;4.53;72.13
14273;BME280;7220;49.450;11.052;2023-04-03T05:37:33;99027.16;;;4.71;71.46
14273;BME280;7220;49.450;11.052;2023-04-03T05:41:34;99035.53;;;4.95;70.93
14273;BME280;7220;49.450;11.052;2023-04-03T05:45:35;99029.72;;;4.74;71.87
14273;BME280;7220;49.450;11.052;2023-04-03T05:49:35;99033.78;;;4.94;71.03
14273;BME280;7220;49.450;11.052;2023-04-03T05:53:36;99043.22;;;5.07;71.00
14273;BME280;7220;49.450;11.052;2023-04-03T05:57:37;99041.38;;;5.12;70.22
14273;BME280;7220;49.450;11.052;2023-04-03T06:01:37;99058.03;;;5.13;70.79
14273;BME280;7220;49.450;11.052;2023-04-03T06:05:37;99061.72;;;5.04;70.44
14273;BME280;7220;49.450;11.052;2023-04-03T06:09:38;99049.44;;;5.03;70.90
14273;BME280;7220;49.450;11.052;2023-04-03T06:13:38;99056.22;;;5.16;70.18
14273;BME280;7220;49.450;11.052;2023-04-03T06:17:39;99059.91;;;5.06;70.73
14273;BME280;7220;49.450;11.052;2023-04-03T06:21:39;99067.66;;;5.15;70.13
14273;BME280;7220;49.450;11.052;2023-04-03T06:25:40;99062.16;;;5.29;69.59
14273;BME280;7220;49.450;11.052;2023-04-03T06:29:40;99065.44;;;5.42;69.25
14273;BME280;7220;49.450;11.052;2023-04-03T06:33:41;99064.50;;;5.45;69.17
14273;BME280;7220;49.450;11.052;2023-04-03T06:37:41;99060.06;;;5.45;68.50
14273;BME280;7220;49.450;11.052;2023-04-03T06:41:42;99077.22;;;5.69;68.48
14273;BME280;7220;49.450;11.052;2023-04-03T06:45:42;99077.13;;;5.74;67.66
14273;BME280;7220;49.450;11.052;2023-04-03T06:49:43;99078.84;;;5.75;67.00
14273;BME280;7220;49.450;11.052;2023-04-03T06:53:44;99064.69;;;5.79;66.45
14273;BME280;7220;49.450;11.052;2023-04-03T06:57:44;99077.13;;;5.74;66.73
14273;BME280;7220;49.450;11.052;2023-04-03T07:01:44;99078.59;;;5.88;66.36
14273;BME280;7220;49.450;11.052;2023-04-03T07:05:45;99082.84;;;5.96;66.10
14273;BME280;7220;49.450;11.052;2023-04-03T07:09:45;99087.34;;;5.90;66.00
14273;BME280;7220;49.450;11.052;2023-04-03T07:13:48;99100.97;;;6.13;64.10
14273;BME280;7220;49.450;11.052;2023-04-03T07:17:48;99114.53;;;6.37;63.88
14273;BME280;7220;49.450;11.052;2023-04-03T07:21:48;99117.47;;;6.64;63.10
14273;BME280;7220;49.450;11.052;2023-04-03T07:25:50;99116.53;;;6.67;62.17
14273;BME280;7220;49.450;11.052;2023-04-03T07:29:51;99124.47;;;6.65;62.22
14273;BME280;7220;49.450;11.052;2023-04-03T07:33:51;99108.19;;;6.84;61.93
14273;BME280;7220;49.450;11.052;2023-04-03T07:37:51;99127.16;;;6.63;62.06
14273;BME280;7220;49.450;11.052;2023-04-03T07:41:52;99115.63;;;6.68;61.63
14273;BME280;7220;49.450;11.052;2023-04-03T07:45:52;99122.97;;;6.92;60.96
14273;BME280;7220;49.450;11.052;2023-04-03T07:49:54;99123.00;;;7.27;59.52
14273;BME280;7220;49.450;11.052;2023-04-03T07:53:54;99124.72;;;7.30;58.87
14273;BME280;7220;49.450;11.052;2023-04-03T07:57:54;99127.66;;;7.52;58.19
14273;BME280;7220;49.450;11.052;2023-04-03T08:01:55;99123.63;;;6.65;61.36
14273;BME280;7220;49.450;11.052;2023-04-03T08:06:04;99135.84;;;7.06;61.18
14273;BME280;7220;49.450;11.052;2023-04-03T08:10:05;99118.41;;;7.35;60.10
14273;BME280;7220;49.450;11.052;2023-04-03T08:14:05;99126.50;;;7.62;59.30
14273;BME280;7220;49.450;11.052;2023-04-03T08:18:06;99123.59;;;7.71;57.89
14273;BME280;7220;49.450;11.052;2023-04-03T08:22:06;99126.63;;;7.57;57.85
14273;BME280;7220;49.450;11.052;2023-04-03T08:26:12;99130.44;;;7.13;59.69
14273;BME280;7220;49.450;11.052;2023-04-03T08:30:13;99130.59;;;7.05;59.31
14273;BME280;7220;49.450;11.052;2023-04-03T08:34:13;99130.88;;;7.63;57.42
14273;BME280;7220;49.450;11.052;2023-04-03T08:38:14;99137.06;;;7.95;56.13
14273;BME280;7220;49.450;11.052;2023-04-03T08:50:59;99137.69;;;8.05;53.22
14273;BME280;7220;49.450;11.052;2023-04-03T08:55:03;99137.97;;;8.26;52.87
14273;BME280;7220;49.450;11.052;2023-04-03T08:59:10;99130.25;;;8.49;51.47
14273;BME280;7220;49.450;11.052;2023-04-03T09:03:14;99140.22;;;8.40;50.30
14273;BME280;7220;49.450;11.052;2023-04-03T09:07:22;99146.63;;;8.32;48.47
14273;BME280;7220;49.450;11.052;2023-04-03T09:15:55;99162.03;;;7.86;48.88
14273;BME280;7220;49.450;11.052;2023-04-03T09:24:35;99146.84;;;7.60;48.43
14273;BME280;7220;49.450;11.052;2023-04-03T09:28:38;99155.03;;;7.51;49.54
14273;BME280;7220;49.450;11.052;2023-04-03T09:32:39;99156.16;;;7.75;48.66
14273;BME280;7220;49.450;11.052;2023-04-03T09:36:48;99156.16;;;7.75;48.42
14273;BME280;7220;49.450;11.052;2023-04-03T09:41:18;99156.63;;;7.89;48.81
14273;BME280;7220;49.450;11.052;2023-04-03T09:45:32;99160.47;;;7.78;48.46
14273;BME280;7220;49.450;11.052;2023-04-03T09:49:33;99150.69;;;7.81;48.53
14273;BME280;7220;49.450;11.052;2023-04-03T09:53:43;99147.84;;;7.89;47.90
14273;BME280;7220;49.450;11.052;2023-04-03T09:57:45;99146.34;;;7.79;47.61
14273;BME280;7220;49.450;11.052;2023-04-03T10:02:02;99150.84;;;8.08;46.13
14273;BME280;7220;49.450;11.052;2023-04-03T10:06:03;99143.78;;;8.09;45.12
14273;BME280;7220;49.450;11.052;2023-04-03T10:10:20;99129.41;;;8.17;44.65
14273;BME280;7220;49.450;11.052;2023-04-03T10:14:23;99145.66;;;8.35;44.81
14273;BME280;7220;49.450;11.052;2023-04-03T10:18:46;99136.81;;;8.36;44.88
14273;BME280;7220;49.450;11.052;2023-04-03T10:27:35;99136.16;;;7.96;47.27
14273;BME280;7220;49.450;11.052;2023-04-03T10:32:09;99139.66;;;8.28;46.20
14273;BME280;7220;49.450;11.052;2023-04-03T10:36:38;99120.03;;;8.35;44.28
14273;BME280;7220;49.450;11.052;2023-04-03T10:45:26;99124.50;;;8.33;46.37
14273;BME280;7220;49.450;11.052;2023-04-03T10:58:02;99120.63;;;8.45;45.38
14273;BME280;7220;49.450;11.052;2023-04-03T11:02:25;99098.66;;;8.72;46.34
14273;BME280;7220;49.450;11.052;2023-04-03T11:06:32;99093.69;;;8.89;43.77
14273;BME280;7220;49.450;11.052;2023-04-03T11:10:41;99095.47;;;8.89;43.30
14273;BME280;7220;49.450;11.052;2023-04-03T11:14:43;99095.13;;;8.99;42.99
14273;BME280;7220;49.450;11.052;2023-04-03T11:19:10;99085.72;;;9.16;41.97
14273;BME280;7220;49.450;11.052;2023-04-03T11:23:21;99076.34;;;9.32;41.02
14273;BME280;7220;49.450;11.052;2023-04-03T11:27:25;99073.56;;;10.10;39.71
14273;BME280;7220;49.450;11.052;2023-04-03T11:31:45;99092.84;;;9.66;39.72
14273;BME280;7220;49.450;11.052;2023-04-03T11:35:55;99069.47;;;10.01;39.68
14273;BME280;7220;49.450;11.052;2023-04-03T11:40:22;99074.50;;;10.33;38.72
14273;BME280;7220;49.450;11.052;2023-04-03T11:56:38;99046.88;;;13.34;34.16
14273;BME280;7220;49.450;11.052;2023-04-03T12:05:25;99060.28;;;11.83;34.92
14273;BME280;7220;49.450;11.052;2023-04-03T12:09:31;99044.44;;;11.61;34.97
14273;BME280;7220;49.450;11.052;2023-04-03T12:13:32;99036.91;;;12.49;35.74
14273;BME280;7220;49.450;11.052;2023-04-03T12:17:33;99033.63;;;13.50;33.77
14273;BME280;7220;49.450;11.052;2023-04-03T12:25:50;99026.66;;;14.47;31.29
14273;BME280;7220;49.450;11.052;2023-04-03T12:34:21;99014.50;;;14.25;30.90
14273;BME280;7220;49.450;11.052;2023-04-03T12:38:40;99009.72;;;14.78;31.46
14273;BME280;7220;49.450;11.052;2023-04-03T12:42:56;99004.66;;;15.49;30.78
14273;BME280;7220;49.450;11.052;2023-04-03T12:47:19;99001.16;;;15.92;28.80
14273;BME280;7220;49.450;11.052;2023-04-03T12:55:30;98986.81;;;15.19;29.58
14273;BME280;7220;49.450;11.052;2023-04-03T12:59:30;98989.13;;;15.25;29.34
14273;BME280;7220;49.450;11.052;2023-04-03T13:03:31;98985.56;;;15.84;28.94
14273;BME280;7220;49.450;11.052;2023-04-03T13:07:34;98982.88;;;16.68;27.70
14273;BME280;7220;49.450;11.052;2023-04-03T13:11:40;98994.22;;;17.39;26.40
14273;BME280;7220;49.450;11.052;2023-04-03T13:15:44;98977.03;;;17.55;25.00
14273;BME280;7220;49.450;11.052;2023-04-03T13:19:45;98977.16;;;17.79;25.15
14273;BME280;7220;49.450;11.052;2023-04-03T13:23:48;98976.41;;;17.64;25.94
14273;BME280;7220;49.450;11.052;2023-04-03T13:27:50;98984.97;;;16.08;28.34
14273;BME280;7220;49.450;11.052;2023-04-03T13:31:53;98971.53;;;16.77;27.08
14273;BME280;7220;49.450;11.052;2023-04-03T13:36:00;98969.97;;;17.54;25.37
14273;BME280;7220;49.450;11.052;2023-04-03T13:48:23;98969.94;;;16.47;26.04
14273;BME280;7220;49.450;11.052;2023-04-03T13:56:37;98973.41;;;15.93;27.32
14273;BME280;7220;49.450;11.052;2023-04-03T14:01:08;98971.91;;;16.31;27.20
14273;BME280;7220;49.450;11.052;2023-04-03T14:05:08;98966.72;;;16.55;26.82
14273;BME280;7220;49.450;11.052;2023-04-03T14:09:09;98968.66;;;17.08;26.28
14273;BME280;7220;49.450;11.052;2023-04-03T14:13:13;98964.16;;;17.34;25.80
14273;BME280;7220;49.450;11.052;2023-04-03T14:17:17;98965.19;;;17.06;27.48
14273;BME280;7220;49.450;11.052;2023-04-03T14:21:19;98960.03;;;16.20;26.51
14273;BME280;7220;49.450;11.052;2023-04-03T14:25:21;98969.41;;;15.12;26.60
14273;BME280;7220;49.450;11.052;2023-04-03T14:29:23;98961.00;;;14.88;27.58
14273;BME280;7220;49.450;11.052;2023-04-03T14:33:23;98958.56;;;16.02;27.12
14273;BME280;7220;49.450;11.052;2023-04-03T14:37:28;98958.88;;;17.07;25.60
14273;BME280;7220;49.450;11.052;2023-04-03T14:41:29;98957.38;;;17.41;25.52
14273;BME280;7220;49.450;11.052;2023-04-03T14:45:29;98946.53;;;17.43;25.80
14273;BME280;7220;49.450;11.052;2023-04-03T14:49:30;98965.72;;;16.01;26.87
14273;BME280;7220;49.450;11.052;2023-04-03T14:53:30;98954.03;;;15.30;27.80
14273;BME280;7220;49.450;11.052;2023-04-03T14:57:32;98948.47;;;14.74;27.55
14273;BME280;7220;49.450;11.052;2023-04-03T15:01:33;98959.00;;;13.81;28.35
14273;BME280;7220;49.450;11.052;2023-04-03T15:05:34;98966.19;;;13.12;29.45
14273;BME280;7220;49.450;11.052;2023-04-03T15:09:35;98954.31;;;14.18;29.17
14273;BME280;7220;49.450;11.052;2023-04-03T15:13:36;98955.66;;;13.93;28.67
14273;BME280;7220;49.450;11.052;2023-04-03T15:17:37;98957.06;;;13.33;29.66
14273;BME280;7220;49.450;11.052;2023-04-03T15:21:38;98962.69;;;12.93;30.36
14273;BME280;7220;49.450;11.052;2023-04-03T15:25:39;98952.13;;;12.38;30.67
14273;BME280;7220;49.450;11.052;2023-04-03T15:29:41;98966.75;;;11.91;31.92
14273;BME280;7220;49.450;11.052;2023-04-03T15:33:41;98971.66;;;12.00;32.02
14273;BME280;7220;49.450;11.052;2023-04-03T15:37:42;98965.88;;;13.00;30.28
14273;BME280;7220;49.450;11.052;2023-04-03T15:41:42;98968.16;;;14.25;28.78
14273;BME280;7220;49.450;11.052;2023-04-03T15:45:43;98952.50;;;13.53;29.27
14273;BME280;7220;49.450;11.052;2023-04-03T15:49:44;98962.22;;;12.85;30.35
14273;BME280;7220;49.450;11.052;2023-04-03T15:53:44;98967.72;;;12.45;31.40
14273;BME280;7220;49.450;11.052;2023-04-03T15:57:44;98973.06;;;11.69;31.26
14273;BME280;7220;49.450;11.052;2023-04-03T16:01:45;98963.78;;;11.78;32.37
14273;BME280;7220;49.450;11.052;2023-04-03T16:05:46;98977.63;;;11.46;32.20
14273;BME280;7220;49.450;11.052;2023-04-03T16:09:46;98986.81;;;10.98;32.18
14273;BME280;7220;49.450;11.052;2023-04-03T16:13:46;98990.84;;;10.65;32.99
14273;BME280;7220;49.450;11.052;2023-04-03T16:17:47;98983.88;;;10.63;32.79
14273;BME280;7220;49.450;11.052;2023-04-03T16:21:48;98981.56;;;10.76;33.26
14273;BME280;7220;49.450;11.052;2023-04-03T16:25:48;98987.09;;;10.92;33.73
14273;BME280;7220;49.450;11.052;2023-04-03T16:29:49;98994.06;;;11.35;32.21
14273;BME280;7220;49.450;11.052;2023-04-03T16:33:50;98987.31;;;11.68;31.54
14273;BME280;7220;49.450;11.052;2023-04-03T16:37:50;98986.75;;;12.92;30.79
14273;BME280;7220;49.450;11.052;2023-04-03T16:41:51;98988.97;;;12.47;31.21
14273;BME280;7220;49.450;11.052;2023-04-03T16:45:51;98984.31;;;12.33;30.64
14273;BME280;7220;49.450;11.052;2023-04-03T16:49:52;99006.00;;;11.66;32.52
14273;BME280;7220;49.450;11.052;2023-04-03T16:53:52;99002.53;;;11.25;32.96
14273;BME280;7220;49.450;11.052;2023-04-03T16:57:52;99001.41;;;10.67;32.77
14273;BME280;7220;49.450;11.052;2023-04-03T17:01:54;99007.25;;;10.31;33.77
14273;BME280;7220;49.450;11.052;2023-04-03T17:05:56;99031.53;;;9.74;33.67
14273;BME280;7220;49.450;11.052;2023-04-03T17:09:56;99028.66;;;9.80;33.81
14273;BME280;7220;49.450;11.052;2023-04-03T17:13:57;99024.59;;;9.21;34.94
14273;BME280;7220;49.450;11.052;2023-04-03T17:17:58;99031.59;;;8.96;35.20
14273;BME280;7220;49.450;11.052;2023-04-03T17:21:58;99033.41;;;8.67;35.70
14273;BME280;7220;49.450;11.052;2023-04-03T17:25:59;99036.19;;;8.64;35.56
14273;BME280;7220;49.450;11.052;2023-04-03T17:29:59;99036.75;;;8.46;35.85
14273;BME280;7220;49.450;11.052;2023-04-03T17:34:00;99035.25;;;8.07;36.82
14273;BME280;7220;49.450;11.052;2023-04-03T17:38:03;99051.38;;;7.36;37.66
14273;BME280;7220;49.450;11.052;2023-04-03T17:42:03;99053.03;;;7.40;38.46
14273;BME280;7220;49.450;11.052;2023-04-03T17:46:07;99046.94;;;7.70;37.49
14273;BME280;7220;49.450;11.052;2023-04-03T17:50:08;99057.59;;;7.34;39.01
14273;BME280;7220;49.450;11.052;2023-04-03T17:54:09;99068.63;;;7.17;38.09
14273;BME280;7220;49.450;11.052;2023-04-03T17:58:09;99067.97;;;6.72;39.23
14273;BME280;7220;49.450;11.052;2023-04-03T18:02:10;99071.78;;;6.59;39.68
14273;BME280;7220;49.450;11.052;2023-04-03T18:06:14;99081.13;;;6.36;39.79
14273;BME280;7220;49.450;11.052;2023-04-03T18:10:14;99084.84;;;6.26;40.82
14273;BME280;7220;49.450;11.052;2023-04-03T18:14:19;99093.09;;;6.12;41.22
14273;BME280;7220;49.450;11.052;2023-04-03T18:18:20;99094.50;;;6.28;41.48
14273;BME280;7220;49.450;11.052;2023-04-03T18:22:22;99098.38;;;6.10;40.89
14273;BME280;7220;49.450;11.052;2023-04-03T18:26:26;99096.97;;;6.36;40.42
14273;BME280;7220;49.450;11.052;2023-04-03T18:30:28;99093.72;;;6.23;40.85
14273;BME280;7220;49.450;11.052;2023-04-03T18:34:29;99106.44;;;6.04;40.93
14273;BME280;7220;49.450;11.052;2023-04-03T18:38:29;99105.31;;;5.69;41.87
14273;BME280;7220;49.450;11.052;2023-04-03T18:42:30;99095.13;;;5.96;41.20
14273;BME280;7220;49.450;11.052;2023-04-03T18:46:31;99104.84;;;5.94;41.09
14273;BME280;7220;49.450;11.052;2023-04-03T18:50:33;99109.69;;;5.72;41.47
14273;BME280;7220;49.450;11.052;2023-04-03T18:54:33;99110.56;;;5.72;41.67
14273;BME280;7220;49.450;11.052;2023-04-03T18:58:36;99111.81;;;5.52;41.71
14273;BME280;7220;49.450;11.052;2023-04-03T19:02:36;99111.75;;;5.56;41.26
14273;BME280;7220;49.450;11.052;2023-04-03T19:06:37;99113.97;;;5.30;42.10
14273;BME280;7220;49.450;11.052;2023-04-03T19:10:37;99122.66;;;5.35;41.41
14273;BME280;7220;49.450;11.052;2023-04-03T19:14:37;99127.53;;;5.07;42.18
14273;BME280;7220;49.450;11.052;2023-04-03T19:18:38;99138.13;;;5.04;42.53
14273;BME280;7220;49.450;11.052;2023-04-03T19:22:39;99138.31;;;4.92;42.30
14273;BME280;7220;49.450;11.052;2023-04-03T19:26:40;99130.84;;;5.18;41.52
14273;BME280;7220;49.450;11.052;2023-04-03T19:30:41;99135.13;;;5.26;41.86
14273;BME280;7220;49.450;11.052;2023-04-03T19:34:41;99135.75;;;5.40;41.24
14273;BME280;7220;49.450;11.052;2023-04-03T19:38:43;99131.16;;;5.51;41.28
14273;BME280;7220;49.450;11.052;2023-04-03T19:42:44;99137.88;;;5.18;41.65
14273;BME280;7220;49.450;11.052;2023-04-03T19:46:45;99143.19;;;5.16;41.91
14273;BME280;7220;49.450;11.052;2023-04-03T19:50:45;99142.84;;;4.82;42.42
14273;BME280;7220;49.450;11.052;2023-04-03T19:54:46;99138.28;;;4.95;42.29
14273;BME280;7220;49.450;11.052;2023-04-03T19:58:46;99136.72;;;4.80;42.78
14273;BME280;7220;49.450;11.052;2023-04-03T20:02:52;99136.94;;;4.66;43.06
14273;BME280;7220;49.450;11.052;2023-04-03T20:06:53;99140.31;;;4.74;42.99
14273;BME280;7220;49.450;11.052;2023-04-03T20:10:54;99154.53;;;4.64;43.14
14273;BME280;7220;49.450;11.052;2023-04-03T20:14:55;99152.78;;;4.61;43.11
14273;BME280;7220;49.450;11.052;2023-04-03T20:18:59;99157.41;;;4.45;43.32
14273;BME280;7220;49.450;11.052;2023-04-03T20:23:00;99149.47;;;4.47;43.91
14273;BME280;7220;49.450;11.052;2023-04-03T20:27:00;99150.09;;;4.66;43.38
14273;BME280;7220;49.450;11.052;2023-04-03T20:31:01;99160.78;;;4.55;43.46
14273;BME280;7220;49.450;11.052;2023-04-03T20:35:01;99159.22;;;4.41;43.75
14273;BME280;7220;49.450;11.052;2023-04-03T20:39:01;99154.84;;;4.40;43.76
14273;BME280;7220;49.450;11.052;2023-04-03T20:43:02;99156.91;;;4.17;44.12
14273;BME280;7220;49.450;11.052;2023-04-03T20:47:03;99147.59;;;4.58;43.73
14273;BME280;7220;49.450;11.052;2023-04-03T20:51:11;99162.06;;;4.24;44.49
14273;BME280;7220;49.450;11.052;2023-04-03T20:55:14;99154.19;;;4.24;44.41
14273;BME280;7220;49.450;11.052;2023-04-03T20:59:15;99150.84;;;4.08;44.88
14273;BME280;7220;49.450;11.052;2023-04-03T21:03:16;99148.84;;;4.28;44.66
14273;BME280;7220;49.450;11.052;2023-04-03T21:20:36;99153.91;;;3.70;46.09
14273;BME280;7220;49.450;11.052;2023-04-03T21:24:37;99155.34;;;3.99;45.62
14273;BME280;7220;49.450;11.052;2023-04-03T21:28:38;99150.19;;;3.92;45.75
14273;BME280;7220;49.450;11.052;2023-04-03T21:32:38;99154.69;;;3.78;45.77
14273;BME280;7220;49.450;11.052;2023-04-03T21:36:39;99152.16;;;3.69;45.74
14273;BME280;7220;49.450;11.052;2023-04-03T21:40:39;99159.41;;;3.45;46.49
14273;BME280;7220;49.450;11.052;2023-04-03T21:44:40;99156.47;;;3.77;45.51
14273;BME280;7220;49.450;11.052;2023-04-03T21:48:40;99163.38;;;3.86;45.26
14273;BME280;7220;49.450;11.052;2023-04-03T21:52:40;99145.19;;;3.68;45.85
14273;BME280;7220;49.450;11.052;2023-04-03T21:56:41;99135.66;;;3.57;46.42
14273;BME280;7220;49.450;11.052;2023-04-03T22:00:41;99156.78;;;3.45;46.36
14273;BME280;7220;49.450;11.052;2023-04-03T22:04:42;99148.81;;;3.54;46.44
14273;BME280;7220;49.450;11.052;2023-04-03T22:08:42;99149.03;;;3.29;46.76
14273;BME280;7220;49.450;11.052;2023-04-03T22:12:43;99150.84;;;3.24;47.38
14273;BME280;7220;49.450;11.052;2023-04-03T22:16:43;99158.84;;;3.09;47.28
14273;BME280;7220;49.450;11.052;2023-04-03T22:20:46;99155.41;;;3.00;47.97
14273;BME280;7220;49.450;11.052;2023-04-03T22:24:46;99156.28;;;2.99;47.60
14273;BME280;7220;49.450;11.052;2023-04-03T22:28:47;99156.41;;;2.87;47.76
14273;BME280;7220;49.450;11.052;2023-04-03T22:32:47;99146.56;;;3.15;47.60
14273;BME280;7220;49.450;11.052;2023-04-03T22:36:47;99145.56;;;3.27;46.98
14273;BME280;7220;49.450;11.052;2023-04-03T22:40:55;99155.25;;;3.21;48.24
14273;BME280;7220;49.450;11.052;2023-04-03T22:44:56;99150.13;;;3.08;47.68
14273;BME280;7220;49.450;11.052;2023-04-03T22:48:57;99143.69;;;3.42;47.35
14273;BME280;7220;49.450;11.052;2023-04-03T22:52:57;99137.53;;;3.44;47.50
14273;BME280;7220;49.450;11.052;2023-04-03T22:56:58;99145.53;;;3.30;47.19
14273;BME280;7220;49.450;11.052;2023-04-03T23:01:11;99145.56;;;3.29;47.14
14273;BME280;7220;49.450;11.052;2023-04-03T23:05:12;99149.22;;;3.05;47.88
14273;BME280;7220;49.450;11.052;2023-04-03T23:09:13;99140.56;;;2.96;47.72